ROMMA est une association bénévole à but non lucratif. Votre soutien est indispensable : ADHERER à ROMMA ou FAIRE un DON

Les Déserts - (73, Savoie)

Bauges (1070 m)   Longitude: 05° 59' 49" E   Latitude: 45° 36' 53" N Station partenaire n°126
 

Détail journalier du     <<     >>

Température Precipitation Humidité Pression Vent Dir Rafale Dir. rafale Ensol.
Heure (°C) (mm) (%) (hPa) (km/h) (km/h) (min)
01:00 13.707710227O19ONO0
02:00 13.107710226O16O0
03:00 12.308010213OSO8SO0
04:00 10.808510224OSO8OSO0
05:00 12.208210214O10OSO0
06:00 11.408410212OSO6OSO0
07:00 10.408710223OSO6OSO0
08:00 12.608910223OSO6OSO40
09:00 16.207710223ENE6ENE40
10:00 18.107110234ENE11ENE60
11:00 19.206810235ENE18ENE60
12:00 19.906810235ENE15ENE60
13:00 21.007010235ENE15ENE60
14:00 22.406710236E18ENE60
15:00 22.706510235E15ENE60
16:00 23.806110225ENE15ENE40
17:00 22.106410223NE11ENE10
18:00 22.605710223NE11NNE20
19:00 22.304310224NNE15ENE30
20:00 20.105110223NO15NO0
21:00 18.006310225O13O0
22:00 16.906510227N15ONO0
23:00
minuit

Graphique du 12-07-2020

 

Serveur OMMA